Time;durP1;ratioP1;P1;durP2;ratioP2;P2;SDS_P1;SDS_P2;PMS_P1;PMS_P2;Temp;Humidity;BMP_temperature;BMP_pressure;BME280_temperature;BME280_humidity;BME280_pressure;Samples;Min_cycle;Max_cycle;Signal;HPM_P1;HPM_P2
2022/05/17 00:01:47;;;;;;;8.43;3.35;;;18.70;59.10;;;;;;5064680;28;20123;-81
2022/05/17 00:04:13;;;;;;;7.70;3.28;;;18.60;59.00;;;;;;5059446;28;20578;-81
2022/05/17 00:06:39;;;;;;;7.95;2.67;;;18.60;59.10;;;;;;5075955;28;20081;-81
2022/05/17 00:09:05;;;;;;;7.57;3.00;;;18.60;59.00;;;;;;5071032;28;20098;-81
2022/05/17 00:11:30;;;;;;;8.00;3.17;;;18.60;59.10;;;;;;5059401;28;20036;-81
2022/05/17 00:13:56;;;;;;;6.25;3.00;;;18.50;59.00;;;;;;5079052;28;20053;-81
2022/05/17 00:16:23;;;;;;;6.60;2.90;;;18.50;59.00;;;;;;5075427;28;20043;-82
2022/05/17 00:18:49;;;;;;;8.50;2.75;;;18.50;58.90;;;;;;5052381;28;20055;-82
2022/05/17 00:21:14;;;;;;;9.02;2.78;;;18.40;58.80;;;;;;5075516;28;20123;-81
2022/05/17 00:23:41;;;;;;;9.25;3.60;;;18.40;58.80;;;;;;5062698;28;20047;-82
2022/05/17 00:26:07;;;;;;;6.35;2.60;;;18.40;58.80;;;;;;5066022;28;20118;-81
2022/05/17 00:28:34;;;;;;;8.88;2.90;;;18.40;58.90;;;;;;5069620;28;20079;-80
2022/05/17 00:31:00;;;;;;;9.00;3.15;;;18.40;58.90;;;;;;5081867;28;20132;-81
2022/05/17 00:33:27;;;;;;;8.57;3.33;;;18.30;58.90;;;;;;5042275;28;20136;-81
2022/05/17 00:35:53;;;;;;;9.63;3.25;;;18.40;58.90;;;;;;5068284;28;20495;-81
2022/05/17 00:38:19;;;;;;;6.18;3.25;;;18.30;58.90;;;;;;5085819;28;20135;-81
2022/05/17 00:40:45;;;;;;;7.15;2.78;;;18.20;58.90;;;;;;5050486;28;20052;-81
2022/05/17 00:43:21;;;;;;;7.25;3.20;;;18.30;59.00;;;;;;5058921;28;20053;-83
2022/05/17 00:45:50;;;;;;;10.18;3.45;;;18.20;59.00;;;;;;5084222;28;20055;-81
2022/05/17 00:48:17;;;;;;;7.50;3.13;;;18.20;59.10;;;;;;5084603;28;20051;-81
2022/05/17 00:50:47;;;;;;;9.75;4.07;;;18.10;59.10;;;;;;5074787;28;20047;-80
2022/05/17 00:53:33;;;;;;;8.52;3.63;;;18.10;59.20;;;;;;5058997;28;20170;-82
2022/05/17 00:56:02;;;;;;;9.68;4.40;;;18.10;59.20;;;;;;5060013;28;20483;-80
2022/05/17 00:58:37;;;;;;;7.82;3.20;;;18.00;59.20;;;;;;5058796;28;20422;-81
2022/05/17 01:01:15;;;;;;;6.15;2.63;;;18.00;59.20;;;;;;5065766;28;20064;-80
2022/05/17 01:03:52;;;;;;;6.75;3.40;;;18.00;59.20;;;;;;5089263;28;20036;-81
2022/05/17 01:06:18;;;;;;;7.88;4.00;;;17.90;59.30;;;;;;5074961;28;20048;-80
2022/05/17 01:08:44;;;;;;;8.27;3.40;;;17.90;59.30;;;;;;5051258;28;20100;-80
2022/05/17 01:11:10;;;;;;;8.43;3.50;;;17.90;59.50;;;;;;5041152;28;20083;-81
2022/05/17 01:16:25;;;;;;;12.07;4.72;;;17.80;59.50;;;;;;5086624;28;20072;-82
2022/05/17 01:18:52;;;;;;;8.20;3.35;;;17.80;59.60;;;;;;5066394;28;20052;-81
2022/05/17 01:21:17;;;;;;;7.43;3.28;;;17.70;59.60;;;;;;5063108;28;20487;-81
2022/05/17 01:23:43;;;;;;;8.07;3.70;;;17.70;59.70;;;;;;5061912;28;20044;-81
2022/05/17 01:26:16;;;;;;;7.50;3.83;;;17.70;59.90;;;;;;5058285;28;20475;-81
2022/05/17 01:28:42;;;;;;;5.15;2.92;;;17.70;59.90;;;;;;5076443;28;20044;-80
2022/05/17 01:31:07;;;;;;;10.13;3.90;;;17.60;59.80;;;;;;5073709;28;20037;-80
2022/05/17 01:33:35;;;;;;;7.05;2.97;;;17.60;59.90;;;;;;5075567;28;20484;-81
2022/05/17 01:36:03;;;;;;;6.97;3.72;;;17.60;60.00;;;;;;5065406;28;20056;-81
2022/05/17 01:38:29;;;;;;;8.90;4.20;;;17.60;60.20;;;;;;5061276;28;20045;-81
2022/05/17 01:40:55;;;;;;;7.85;3.45;;;17.50;60.20;;;;;;5056958;28;20033;-80
2022/05/17 01:43:21;;;;;;;6.93;3.10;;;17.50;60.10;;;;;;5075085;28;20043;-80
2022/05/17 01:45:47;;;;;;;11.82;4.85;;;17.50;60.10;;;;;;5079749;28;20040;-80
2022/05/17 01:48:13;;;;;;;9.13;4.30;;;17.40;60.20;;;;;;5073462;28;20048;-80
2022/05/17 01:50:38;;;;;;;8.93;3.67;;;17.40;60.40;;;;;;5073172;28;20130;-80
2022/05/17 01:53:04;;;;;;;7.60;3.72;;;17.40;60.40;;;;;;5064885;28;20049;-81
2022/05/17 01:55:30;;;;;;;7.07;3.28;;;17.40;60.40;;;;;;5060407;28;20056;-81
2022/05/17 01:57:56;;;;;;;7.95;3.45;;;17.30;60.40;;;;;;5073952;28;20644;-81
2022/05/17 02:00:23;;;;;;;7.05;3.78;;;17.30;60.40;;;;;;5080016;28;20040;-81
2022/05/17 02:02:50;;;;;;;7.97;4.32;;;17.30;60.40;;;;;;5048889;28;20044;-81
2022/05/17 02:05:18;;;;;;;9.25;4.97;;;17.30;60.60;;;;;;5059079;28;20080;-81
2022/05/17 02:07:44;;;;;;;8.95;4.30;;;17.20;60.70;;;;;;5054933;28;20052;-82
2022/05/17 02:10:10;;;;;;;6.72;3.38;;;17.20;60.60;;;;;;5084553;28;20386;-80
2022/05/17 02:12:36;;;;;;;9.15;3.97;;;17.20;60.60;;;;;;5068384;28;20044;-79
2022/05/17 02:15:06;;;;;;;9.07;4.05;;;17.20;60.60;;;;;;5050689;28;20041;-80
2022/05/17 02:17:35;;;;;;;7.13;3.58;;;17.20;60.80;;;;;;5073155;28;20769;-80
2022/05/17 02:20:01;;;;;;;11.63;4.15;;;17.10;60.80;;;;;;5055790;28;20052;-80
2022/05/17 02:22:27;;;;;;;9.30;4.07;;;17.10;61.20;;;;;;5068855;28;20087;-80
2022/05/17 02:24:52;;;;;;;6.82;3.60;;;17.10;60.80;;;;;;5066298;28;20074;-82
2022/05/17 02:27:18;;;;;;;6.85;3.60;;;17.00;60.70;;;;;;5071937;28;20067;-80
2022/05/17 02:29:44;;;;;;;9.07;4.38;;;17.00;60.80;;;;;;5067243;28;20044;-81
2022/05/17 02:32:10;;;;;;;10.13;4.18;;;17.00;60.80;;;;;;5065336;28;20043;-81
2022/05/17 02:34:36;;;;;;;6.65;3.53;;;16.90;60.80;;;;;;5075002;28;20053;-81
2022/05/17 02:37:03;;;;;;;8.13;3.88;;;16.90;60.90;;;;;;5072730;28;20041;-81
2022/05/17 02:39:29;;;;;;;9.70;4.05;;;16.90;60.90;;;;;;5078527;28;20044;-82
2022/05/17 02:41:54;;;;;;;7.55;3.40;;;16.90;61.00;;;;;;5059689;28;20049;-81
2022/05/17 02:44:20;;;;;;;7.40;4.07;;;16.90;61.00;;;;;;5055632;28;20116;-81
2022/05/17 02:46:46;;;;;;;7.80;3.85;;;16.90;61.00;;;;;;5062670;28;20368;-82
2022/05/17 02:49:12;;;;;;;7.25;3.30;;;16.80;61.00;;;;;;5055318;28;20091;-82
2022/05/17 02:51:38;;;;;;;7.28;3.60;;;16.80;61.00;;;;;;5070651;28;20537;-82
2022/05/17 02:54:06;;;;;;;6.85;3.75;;;16.80;61.10;;;;;;5077824;28;20123;-81
2022/05/17 02:56:33;;;;;;;7.82;3.53;;;16.80;61.10;;;;;;5044055;28;20048;-81
2022/05/17 02:58:59;;;;;;;7.35;3.75;;;16.80;61.10;;;;;;5078412;28;20052;-81
2022/05/17 03:01:25;;;;;;;7.82;4.00;;;16.70;61.10;;;;;;5083464;28;20041;-80
2022/05/17 03:03:51;;;;;;;8.95;4.30;;;16.70;61.20;;;;;;5077718;28;20495;-81
2022/05/17 03:06:17;;;;;;;7.18;4.15;;;16.70;61.30;;;;;;5072850;28;20087;-81
2022/05/17 03:08:42;;;;;;;8.13;4.10;;;16.70;61.30;;;;;;5074348;28;20091;-82
2022/05/17 03:11:08;;;;;;;7.38;3.78;;;16.70;61.30;;;;;;5082943;28;20090;-81
2022/05/17 03:13:35;;;;;;;7.90;3.97;;;16.70;61.30;;;;;;5045453;28;20461;-81
2022/05/17 03:16:01;;;;;;;6.70;3.92;;;16.60;61.30;;;;;;5091293;28;20119;-81
2022/05/17 03:18:27;;;;;;;9.27;4.53;;;16.60;61.40;;;;;;5076197;28;20112;-81
2022/05/17 03:20:53;;;;;;;7.90;3.95;;;16.60;61.40;;;;;;5081179;28;20112;-81
2022/05/17 03:23:18;;;;;;;6.22;4.13;;;16.60;61.40;;;;;;5058690;28;20032;-81
2022/05/17 03:25:44;;;;;;;7.30;3.60;;;16.60;61.50;;;;;;5079966;28;20086;-82
2022/05/17 03:28:12;;;;;;;10.30;3.97;;;16.50;61.40;;;;;;5081504;28;20055;-81
2022/05/17 03:30:41;;;;;;;6.32;3.92;;;16.50;61.50;;;;;;5063606;28;20044;-82
2022/05/17 03:33:08;;;;;;;8.80;5.28;;;16.50;61.50;;;;;;5076169;28;20407;-81
2022/05/17 03:35:34;;;;;;;7.22;3.83;;;16.50;61.60;;;;;;5076643;28;20068;-81
2022/05/17 03:38:00;;;;;;;7.60;4.25;;;16.50;61.70;;;;;;5083700;28;20068;-81
2022/05/17 03:40:26;;;;;;;8.40;4.63;;;16.50;61.80;;;;;;5061670;28;20044;-82
2022/05/17 03:42:52;;;;;;;8.70;4.03;;;16.40;61.80;;;;;;5076870;28;20040;-82
2022/05/17 03:45:17;;;;;;;7.55;4.38;;;16.40;61.90;;;;;;5077772;28;20082;-81
2022/05/17 03:47:43;;;;;;;7.25;4.07;;;16.40;62.00;;;;;;5084181;28;20483;-82
2022/05/17 03:50:10;;;;;;;6.78;4.18;;;16.40;62.50;;;;;;5078575;28;20044;-83
2022/05/17 03:52:36;;;;;;;9.68;5.15;;;16.40;62.10;;;;;;5057558;28;20060;-82
2022/05/17 03:55:04;;;;;;;8.07;4.35;;;16.30;62.10;;;;;;5079474;28;20480;-80
2022/05/17 03:57:30;;;;;;;8.90;4.25;;;16.30;62.10;;;;;;5046990;28;20057;-80
2022/05/17 03:59:55;;;;;;;6.65;3.78;;;16.30;62.20;;;;;;5076615;28;20403;-80
2022/05/17 04:02:22;;;;;;;7.13;4.20;;;16.30;62.30;;;;;;5076237;28;20032;-80
2022/05/17 04:04:50;;;;;;;9.07;5.47;;;16.30;62.40;;;;;;5069237;28;20045;-80
2022/05/17 04:07:16;;;;;;;6.97;4.53;;;16.30;62.60;;;;;;5081826;28;20099;-80
2022/05/17 04:09:42;;;;;;;6.78;4.30;;;16.20;62.70;;;;;;5077122;28;20408;-80
2022/05/17 04:12:08;;;;;;;10.35;5.63;;;16.20;62.80;;;;;;5105814;28;20391;-81
2022/05/17 04:14:34;;;;;;;8.98;4.65;;;16.20;63.00;;;;;;5076115;28;20036;-80
2022/05/17 04:17:00;;;;;;;8.70;4.43;;;16.20;63.20;;;;;;5079684;28;20123;-81
2022/05/17 04:19:25;;;;;;;10.98;5.57;;;16.20;63.30;;;;;;5077579;28;20052;-81
2022/05/17 04:21:51;;;;;;;7.75;5.18;;;16.20;63.90;;;;;;5089641;28;20036;-81
2022/05/17 04:24:17;;;;;;;8.63;4.75;;;16.20;63.50;;;;;;5076161;28;20127;-82
2022/05/17 04:26:42;;;;;;;10.27;5.60;;;16.20;63.60;;;;;;5080284;28;20047;-82
2022/05/17 04:29:09;;;;;;;9.55;5.53;;;16.20;63.90;;;;;;5057675;28;20048;-82
2022/05/17 04:31:35;;;;;;;8.77;4.65;;;16.20;64.00;;;;;;5076855;28;20040;-82
2022/05/17 04:34:02;;;;;;;8.23;5.20;;;16.20;64.00;;;;;;5090527;28;20087;-82
2022/05/17 04:36:28;;;;;;;10.00;5.82;;;16.20;64.20;;;;;;5064440;28;20053;-82
2022/05/17 04:38:53;;;;;;;13.45;5.78;;;16.20;64.50;;;;;;5062905;28;20043;-82
2022/05/17 04:41:19;;;;;;;11.52;5.20;;;16.20;64.80;;;;;;5074897;28;20132;-82
2022/05/17 04:43:46;;;;;;;10.90;5.45;;;16.20;64.90;;;;;;5066245;28;20036;-82
2022/05/17 04:46:12;;;;;;;11.80;5.82;;;16.20;65.10;;;;;;5076689;28;20064;-82
2022/05/17 04:48:38;;;;;;;9.82;5.75;;;16.20;65.40;;;;;;5074756;28;20123;-83
2022/05/17 04:51:12;;;;;;;10.90;5.40;;;16.30;65.70;;;;;;5084180;28;20048;-82
2022/05/17 04:53:39;;;;;;;9.82;5.32;;;16.30;66.00;;;;;;5073243;28;20127;-83
2022/05/17 04:56:06;;;;;;;11.88;6.32;;;16.30;66.00;;;;;;5075355;28;20044;-83
2022/05/17 04:58:32;;;;;;;12.02;6.43;;;16.30;66.30;;;;;;5070920;28;20085;-83
2022/05/17 05:00:58;;;;;;;10.65;5.95;;;16.40;66.60;;;;;;5074685;28;20120;-81
2022/05/17 05:03:24;;;;;;;12.00;6.60;;;16.40;66.90;;;;;;5063921;28;20045;-80
2022/05/17 05:05:50;;;;;;;9.50;6.22;;;16.40;67.40;;;;;;5057141;28;20056;-82
2022/05/17 05:08:16;;;;;;;11.60;7.07;;;16.50;67.80;;;;;;5079352;28;20116;-81
2022/05/17 05:10:44;;;;;;;10.07;5.32;;;16.60;68.10;;;;;;5073676;28;20055;-83
2022/05/17 05:13:20;;;;;;;9.73;5.07;;;16.70;68.20;;;;;;5046695;28;20437;-82
2022/05/17 05:15:46;;;;;;;9.57;5.88;;;16.80;68.50;;;;;;5039858;28;20499;-82
2022/05/17 05:18:13;;;;;;;10.60;5.63;;;17.00;68.60;;;;;;5075520;28;20571;-84
2022/05/17 05:20:39;;;;;;;12.95;5.70;;;17.20;68.30;;;;;;5070673;28;20067;-84
2022/05/17 05:23:05;;;;;;;10.18;5.05;;;17.40;68.20;;;;;;5056114;28;20518;-81
2022/05/17 05:25:32;;;;;;;9.05;4.95;;;17.50;67.50;;;;;;5061208;28;20041;-82
2022/05/17 05:27:57;;;;;;;9.32;4.72;;;17.80;67.00;;;;;;5070346;28;20044;-81
2022/05/17 05:30:23;;;;;;;9.98;4.75;;;17.90;66.20;;;;;;5072627;28;20123;-81
2022/05/17 05:32:49;;;;;;;9.50;4.57;;;18.00;65.50;;;;;;5056074;28;20483;-81
2022/05/17 05:35:17;;;;;;;10.30;4.53;;;18.10;65.10;;;;;;5055619;28;20037;-80
2022/05/17 05:37:43;;;;;;;10.73;4.10;;;18.20;64.90;;;;;;5054869;28;20049;-79
2022/05/17 05:40:11;;;;;;;7.82;3.90;;;18.30;64.60;;;;;;5056234;28;20052;-80
2022/05/17 05:42:38;;;;;;;11.57;5.28;;;18.40;64.10;;;;;;5074192;28;20041;-81
2022/05/17 05:45:05;;;;;;;11.15;4.32;;;18.50;63.80;;;;;;5055734;28;20082;-81
2022/05/17 05:47:30;;;;;;;9.45;4.15;;;18.60;64.10;;;;;;5056506;28;20066;-81
2022/05/17 05:49:56;;;;;;;10.77;4.95;;;18.70;63.80;;;;;;5055421;28;20051;-83
2022/05/17 05:52:22;;;;;;;12.95;4.93;;;18.80;63.80;;;;;;5055917;28;20079;-82
2022/05/17 05:54:47;;;;;;;12.00;4.60;;;19.00;64.00;;;;;;5038648;28;20067;-82
2022/05/17 05:57:13;;;;;;;8.57;4.00;;;19.20;63.90;;;;;;5074294;28;20048;-82
2022/05/17 05:59:39;;;;;;;8.07;3.60;;;19.30;63.10;;;;;;5073926;28;20048;-81
2022/05/17 06:02:06;;;;;;;10.10;3.88;;;19.60;62.40;;;;;;5056958;28;20044;-82
2022/05/17 06:04:32;;;;;;;9.65;3.85;;;19.80;62.30;;;;;;5074967;28;20048;-83
2022/05/17 06:06:58;;;;;;;15.43;4.47;;;20.00;62.20;;;;;;5074143;28;20079;-82
2022/05/17 06:09:24;;;;;;;6.47;3.20;;;20.20;61.60;;;;;;5055501;28;20041;-84
2022/05/17 06:11:50;;;;;;;9.82;3.47;;;20.50;61.40;;;;;;5055553;28;20119;-82
2022/05/17 06:14:16;;;;;;;9.13;3.75;;;20.70;60.50;;;;;;5056926;28;20152;-84
2022/05/17 06:16:41;;;;;;;8.95;3.35;;;21.00;59.80;;;;;;5046551;28;20057;-84
2022/05/17 06:19:07;;;;;;;11.52;4.65;;;21.20;59.40;;;;;;5049995;28;20037;-84
2022/05/17 06:21:33;;;;;;;9.57;4.07;;;21.40;59.00;;;;;;5073457;28;20102;-83
2022/05/17 06:23:59;;;;;;;9.23;3.72;;;21.60;58.40;;;;;;5075147;28;20384;-83
2022/05/17 06:26:24;;;;;;;10.50;3.53;;;21.70;57.80;;;;;;5061490;28;20048;-83
2022/05/17 06:28:50;;;;;;;11.13;4.35;;;21.90;57.40;;;;;;5059795;28;20048;-84
2022/05/17 06:31:16;;;;;;;12.38;4.85;;;22.10;57.00;;;;;;5059704;28;20092;-84
2022/05/17 06:33:41;;;;;;;11.60;4.43;;;22.30;56.90;;;;;;5077744;28;20048;-84
2022/05/17 06:36:07;;;;;;;9.10;3.55;;;22.50;57.00;;;;;;5059616;28;20036;-84
2022/05/17 06:38:34;;;;;;;9.80;3.90;;;22.70;55.90;;;;;;5043251;28;20075;-83
2022/05/17 06:40:59;;;;;;;13.55;4.07;;;23.00;55.50;;;;;;5077420;28;20391;-84
2022/05/17 06:43:26;;;;;;;9.30;3.75;;;23.20;55.20;;;;;;5059732;28;20040;-84
2022/05/17 06:45:52;;;;;;;9.93;3.63;;;23.50;54.40;;;;;;5076737;28;20127;-85
2022/05/17 06:48:20;;;;;;;10.98;3.75;;;23.80;53.60;;;;;;5059351;28;20135;-84
2022/05/17 06:50:46;;;;;;;8.60;3.05;;;23.90;53.30;;;;;;5077291;28;20055;-85
2022/05/17 06:53:13;;;;;;;6.68;3.38;;;24.10;52.60;;;;;;5077355;28;20484;-85
2022/05/17 06:55:39;;;;;;;6.15;2.63;;;24.30;52.20;;;;;;5059160;28;20115;-83
2022/05/17 06:58:05;;;;;;;9.98;3.50;;;24.40;51.70;;;;;;5076867;28;20563;-83
2022/05/17 07:00:31;;;;;;;9.73;3.28;;;24.60;51.30;;;;;;5077331;28;20032;-83
2022/05/17 07:02:59;;;;;;;12.10;3.60;;;24.80;50.80;;;;;;5059535;28;20487;-84
2022/05/17 07:05:25;;;;;;;9.30;3.65;;;24.80;50.60;;;;;;5077072;28;20044;-84
2022/05/17 07:07:51;;;;;;;7.97;3.10;;;24.90;50.30;;;;;;5073944;28;20067;-84
2022/05/17 07:13:12;;;;;;;10.77;3.63;;;25.20;50.20;;;;;;5057548;28;20105;-83
2022/05/17 07:15:44;;;;;;;9.13;3.42;;;25.30;49.80;;;;;;5076892;28;20044;-83
2022/05/17 07:18:12;;;;;;;9.68;3.47;;;25.50;49.50;;;;;;5075315;28;20483;-83
2022/05/17 07:20:39;;;;;;;8.95;3.53;;;25.50;48.90;;;;;;5076854;28;20123;-83
2022/05/17 07:23:05;;;;;;;7.03;2.80;;;25.70;48.80;;;;;;5076501;28;20076;-84
2022/05/17 07:25:34;;;;;;;9.23;2.85;;;25.80;48.60;;;;;;5076416;28;20058;-82
2022/05/17 07:28:01;;;;;;;8.98;2.85;;;25.90;48.10;;;;;;5075871;28;20048;-84
2022/05/17 07:30:27;;;;;;;8.40;3.63;;;26.00;48.00;;;;;;5074801;28;20044;-84
2022/05/17 07:32:53;;;;;;;7.13;2.75;;;26.10;47.60;;;;;;5075035;28;20135;-84
2022/05/17 07:35:19;;;;;;;7.40;2.85;;;26.10;47.10;;;;;;5074615;28;20102;-84
2022/05/17 07:37:45;;;;;;;9.18;3.08;;;26.20;47.10;;;;;;5073992;28;20028;-84
2022/05/17 07:40:12;;;;;;;9.82;3.33;;;26.20;46.90;;;;;;5074756;28;20127;-83
2022/05/17 07:42:40;;;;;;;9.13;3.13;;;26.20;47.10;;;;;;5074582;28;20052;-84
2022/05/17 07:45:06;;;;;;;10.73;3.25;;;26.20;46.80;;;;;;5075056;28;20049;-83
2022/05/17 07:47:33;;;;;;;6.88;2.65;;;26.30;46.60;;;;;;5056909;28;20400;-84
2022/05/17 07:49:59;;;;;;;7.07;2.53;;;26.30;46.50;;;;;;5074645;28;20072;-84
2022/05/17 07:52:24;;;;;;;7.25;3.28;;;26.40;46.10;;;;;;5074403;28;20086;-84
2022/05/17 07:54:50;;;;;;;4.93;2.10;;;26.40;46.20;;;;;;5056848;28;20037;-83
2022/05/17 07:57:15;;;;;;;8.23;3.15;;;26.50;46.30;;;;;;5074480;28;20047;-83
2022/05/17 07:59:41;;;;;;;9.70;3.20;;;26.60;46.20;;;;;;5056904;28;20388;-83
2022/05/17 08:02:07;;;;;;;8.43;2.95;;;26.70;45.90;;;;;;5059408;28;20484;-83
2022/05/17 08:04:33;;;;;;;8.98;2.70;;;26.80;45.10;;;;;;5056627;28;20063;-83
2022/05/17 08:06:59;;;;;;;7.80;2.92;;;26.80;44.80;;;;;;5057154;28;20452;-83
2022/05/17 08:09:25;;;;;;;8.05;2.20;;;26.80;44.70;;;;;;5084365;28;20135;-81
2022/05/17 08:11:51;;;;;;;8.75;2.40;;;26.90;44.90;;;;;;5075763;28;20037;-82
2022/05/17 08:14:17;;;;;;;8.25;2.63;;;27.00;44.70;;;;;;5074512;28;20044;-83
2022/05/17 08:16:43;;;;;;;9.35;2.42;;;27.10;44.40;;;;;;5074700;28;20049;-81
2022/05/17 08:19:10;;;;;;;7.63;2.28;;;27.20;44.10;;;;;;5074949;28;20121;-83
2022/05/17 08:21:36;;;;;;;11.43;3.10;;;27.30;44.10;;;;;;5075661;28;20127;-83
2022/05/17 08:24:02;;;;;;;12.30;3.25;;;27.40;44.20;;;;;;5091101;28;20464;-83
2022/05/17 08:29:15;;;;;;;6.50;2.20;;;27.60;43.20;;;;;;5065023;28;20053;-83
2022/05/17 08:31:42;;;;;;;9.32;2.70;;;27.80;43.20;;;;;;5055334;28;20403;-82
2022/05/17 08:34:10;;;;;;;9.10;2.45;;;27.90;42.60;;;;;;5072404;28;20150;-83
2022/05/17 08:36:36;;;;;;;11.35;2.60;;;28.00;43.10;;;;;;5075156;28;20040;-83
2022/05/17 08:39:03;;;;;;;8.50;2.50;;;28.10;42.50;;;;;;5074556;28;20045;-83
2022/05/17 08:41:37;;;;;;;8.15;1.92;;;28.20;42.10;;;;;;5075436;28;20032;-83
2022/05/17 08:44:13;;;;;;;7.88;2.75;;;28.50;42.10;;;;;;5073301;28;20127;-83
2022/05/17 08:46:59;;;;;;;7.45;2.33;;;28.60;41.20;;;;;;5056353;28;20108;-84
2022/05/17 08:49:25;;;;;;;7.97;2.50;;;28.80;41.40;;;;;;5056218;28;20502;-83
2022/05/17 08:52:09;;;;;;;6.72;1.73;;;28.90;41.10;;;;;;5075454;28;20076;-83
2022/05/17 08:54:41;;;;;;;7.28;2.55;;;29.00;40.70;;;;;;5056244;28;20056;-84
2022/05/17 08:57:13;;;;;;;7.70;1.92;;;29.10;40.00;;;;;;5057355;28;20048;-82
2022/05/17 08:59:41;;;;;;;5.95;1.85;;;29.20;39.80;;;;;;5056727;28;20044;-83
2022/05/17 09:02:17;;;;;;;8.57;2.60;;;29.30;39.30;;;;;;5075263;28;20040;-84
2022/05/17 09:04:42;;;;;;;6.65;2.20;;;29.40;38.70;;;;;;5090530;28;20045;-82
2022/05/17 09:07:27;;;;;;;6.65;2.20;;;29.40;37.70;;;;;;5039875;28;20106;-84
2022/05/17 09:10:11;;;;;;;7.18;2.13;;;29.50;37.30;;;;;;5074194;28;20059;-83
2022/05/17 09:12:50;;;;;;;5.40;1.75;;;29.40;36.50;;;;;;5075553;28;20045;-82
2022/05/17 09:15:16;;;;;;;5.63;1.77;;;29.30;36.60;;;;;;5038012;28;20061;-84
2022/05/17 09:17:44;;;;;;;8.07;2.20;;;29.30;36.60;;;;;;5045077;28;20053;-83
2022/05/17 09:20:15;;;;;;;5.32;1.65;;;29.20;36.60;;;;;;5085345;28;20091;-83
2022/05/17 09:22:41;;;;;;;9.93;2.25;;;29.20;36.90;;;;;;5084027;28;20063;-81
2022/05/17 09:25:47;;;;;;;7.82;2.30;;;29.10;37.20;;;;;;5076836;28;20131;-81
2022/05/17 09:28:21;;;;;;;7.18;2.40;;;29.10;36.60;;;;;;5011221;28;20065;-82
2022/05/17 09:30:47;;;;;;;9.43;2.25;;;29.00;36.30;;;;;;5017479;28;20050;-81
2022/05/17 09:33:20;;;;;;;5.18;1.50;;;28.90;36.50;;;;;;5001155;28;20061;-82
2022/05/17 09:36:00;;;;;;;7.68;2.25;;;28.70;36.90;;;;;;4992773;28;20076;-81
2022/05/17 09:38:35;;;;;;;5.40;1.83;;;28.60;37.20;;;;;;5001529;28;20112;-82
2022/05/17 09:41:05;;;;;;;5.78;1.70;;;28.50;37.60;;;;;;4990882;28;20100;-80
2022/05/17 09:43:40;;;;;;;5.47;1.92;;;28.50;38.20;;;;;;5013392;28;20042;-80
2022/05/17 09:46:13;;;;;;;6.97;2.20;;;28.40;38.30;;;;;;4990109;28;20141;-82
2022/05/17 09:54:47;;;;;;;9.13;2.65;;;28.30;38.70;;;;;;5007582;28;20042;-81
2022/05/17 09:57:16;;;;;;;7.30;1.70;;;28.20;39.10;;;;;;4991242;28;20050;-80
2022/05/17 09:59:43;;;;;;;5.80;1.73;;;28.20;39.30;;;;;;4983266;28;20161;-82
2022/05/17 10:02:28;;;;;;;5.40;1.75;;;28.10;39.10;;;;;;4972806;28;20046;-82
2022/05/17 10:04:55;;;;;;;6.43;1.92;;;28.10;39.30;;;;;;5016157;28;20060;-82
2022/05/17 10:07:25;;;;;;;7.28;2.00;;;28.10;39.30;;;;;;5070885;28;20041;-82
2022/05/17 10:09:53;;;;;;;8.15;2.25;;;28.00;39.30;;;;;;5052428;28;20695;-81
2022/05/17 10:12:37;;;;;;;6.38;1.77;;;28.00;39.70;;;;;;5053959;28;20091;-81
2022/05/17 10:15:09;;;;;;;6.60;1.90;;;27.90;39.50;;;;;;5053504;28;20053;-82
2022/05/17 10:17:44;;;;;;;6.97;1.70;;;27.90;39.30;;;;;;5053615;28;20048;-82
2022/05/17 10:20:20;;;;;;;8.18;2.03;;;27.90;39.70;;;;;;5035129;28;20076;-84
2022/05/17 10:23:00;;;;;;;5.88;1.88;;;27.90;39.20;;;;;;5036154;28;20383;-84
2022/05/17 10:25:41;;;;;;;8.13;1.75;;;27.80;39.60;;;;;;5034961;28;20052;-83
2022/05/17 10:28:30;;;;;;;9.27;2.45;;;27.90;39.60;;;;;;5053554;28;20094;-84
2022/05/17 10:31:21;;;;;;;5.25;1.98;;;27.90;39.60;;;;;;4988667;28;20050;-84
2022/05/17 10:34:11;;;;;;;9.20;2.30;;;27.80;39.60;;;;;;4934498;29;20444;-84
2022/05/17 10:36:44;;;;;;;7.88;1.70;;;27.80;39.50;;;;;;4934275;29;20055;-83
2022/05/17 10:39:27;;;;;;;8.95;2.58;;;27.80;39.80;;;;;;4934094;29;20052;-84
2022/05/17 10:41:52;;;;;;;5.32;1.73;;;27.80;39.00;;;;;;4930775;29;20053;-82
2022/05/17 10:44:20;;;;;;;5.03;1.75;;;27.80;39.30;;;;;;4920549;29;20058;-82
2022/05/17 10:46:56;;;;;;;7.10;1.83;;;27.80;38.30;;;;;;4934252;29;20043;-83
2022/05/17 10:49:29;;;;;;;6.45;2.20;;;27.80;38.60;;;;;;4917478;29;20058;-82
2022/05/17 10:52:13;;;;;;;8.45;2.28;;;27.80;39.20;;;;;;4933989;29;20054;-83
2022/05/17 10:54:56;;;;;;;6.75;2.22;;;27.80;39.60;;;;;;4918366;29;20507;-84
2022/05/17 10:57:34;;;;;;;6.85;1.70;;;27.80;39.90;;;;;;4934468;29;20415;-83
2022/05/17 11:00:09;;;;;;;9.45;2.58;;;27.80;39.70;;;;;;4934083;29;20106;-83
2022/05/17 11:03:02;;;;;;;5.60;1.60;;;27.80;39.50;;;;;;4933888;29;20253;-81
2022/05/17 11:05:37;;;;;;;7.75;2.13;;;27.80;39.70;;;;;;4917854;29;20059;-82
2022/05/17 11:08:09;;;;;;;7.60;2.13;;;27.70;40.00;;;;;;4938858;28;20117;-84
2022/05/17 11:10:44;;;;;;;7.97;2.00;;;27.70;40.10;;;;;;4999326;28;20400;-83
2022/05/17 11:13:32;;;;;;;6.13;2.13;;;27.70;39.60;;;;;;5045476;28;20314;-84
2022/05/17 11:16:14;;;;;;;6.60;1.83;;;27.80;39.60;;;;;;5056678;28;20090;-83
2022/05/17 11:18:50;;;;;;;9.02;2.45;;;27.80;40.40;;;;;;5057304;28;20077;-83
2022/05/17 11:21:33;;;;;;;8.80;2.42;;;27.80;39.60;;;;;;5040971;28;20037;-82
2022/05/17 11:24:07;;;;;;;12.07;3.47;;;27.90;39.80;;;;;;5057071;28;20045;-82
2022/05/17 11:26:50;;;;;;;6.35;2.83;;;27.90;40.00;;;;;;5057144;28;20049;-83
2022/05/17 11:29:29;;;;;;;7.00;2.15;;;27.90;39.30;;;;;;5059150;28;20057;-83
2022/05/17 11:31:57;;;;;;;8.95;2.47;;;27.90;39.20;;;;;;5056540;28;20057;-82
2022/05/17 11:34:22;;;;;;;8.15;1.98;;;27.90;40.40;;;;;;5056415;28;20037;-83
2022/05/17 11:36:50;;;;;;;5.25;1.60;;;27.90;40.40;;;;;;5056017;28;20087;-82
2022/05/17 11:39:31;;;;;;;4.72;1.67;;;27.90;40.60;;;;;;5056648;28;20598;-83
2022/05/17 11:42:06;;;;;;;5.22;1.92;;;27.90;40.90;;;;;;5056017;28;20488;-83
2022/05/17 11:44:46;;;;;;;6.53;2.20;;;28.00;41.10;;;;;;5038104;28;20040;-83
2022/05/17 11:47:38;;;;;;;7.38;2.03;;;28.00;41.20;;;;;;5056341;28;20040;-82
2022/05/17 11:50:15;;;;;;;7.90;2.60;;;28.10;41.20;;;;;;5038489;28;20485;-81
2022/05/17 11:52:46;;;;;;;7.28;3.03;;;28.10;40.30;;;;;;5056030;28;20076;-82
2022/05/17 11:55:17;;;;;;;7.13;2.00;;;28.10;40.80;;;;;;5054801;28;20033;-83
2022/05/17 11:57:48;;;;;;;9.40;2.72;;;28.10;41.50;;;;;;5058259;28;20045;-83
2022/05/17 12:00:23;;;;;;;7.53;2.53;;;28.20;40.80;;;;;;5059316;28;20049;-83
2022/05/17 12:02:52;;;;;;;6.72;2.22;;;28.20;40.80;;;;;;5036657;28;20095;-83
2022/05/17 12:05:37;;;;;;;6.22;1.90;;;28.20;40.90;;;;;;5040514;28;20076;-82
2022/05/17 12:08:39;;;;;;;7.95;2.50;;;28.30;41.00;;;;;;5038226;28;20057;-83
2022/05/17 12:11:05;;;;;;;8.63;2.40;;;28.30;40.70;;;;;;5056117;28;20117;-84
2022/05/17 12:13:39;;;;;;;7.93;2.40;;;28.20;40.40;;;;;;5055578;28;20540;-84
2022/05/17 12:16:08;;;;;;;8.70;2.10;;;28.20;39.80;;;;;;5038057;28;20052;-83
2022/05/17 12:18:55;;;;;;;6.82;1.90;;;28.10;40.10;;;;;;5038096;28;20052;-84
2022/05/17 12:21:41;;;;;;;7.50;2.35;;;28.00;40.60;;;;;;5021034;28;20047;-85
2022/05/17 12:24:28;;;;;;;8.40;2.17;;;27.90;40.80;;;;;;5055539;28;20045;-83
2022/05/17 12:27:06;;;;;;;7.75;2.05;;;27.90;41.40;;;;;;5055342;28;20045;-83
2022/05/17 12:32:36;;;;;;;8.73;2.67;;;27.90;42.10;;;;;;4994035;28;20137;-84
2022/05/17 12:35:05;;;;;;;9.20;2.67;;;28.00;42.10;;;;;;4977871;28;20068;-84
2022/05/17 12:37:31;;;;;;;7.28;2.28;;;28.10;41.70;;;;;;4993504;28;20155;-83
2022/05/17 12:43:03;;;;;;;7.93;2.60;;;28.20;41.40;;;;;;4993498;28;20050;-85
2022/05/17 12:45:32;;;;;;;8.80;2.85;;;28.30;41.00;;;;;;4977805;28;20046;-84
2022/05/17 12:48:01;;;;;;;7.90;2.00;;;28.40;41.50;;;;;;4977439;28;20050;-83
2022/05/17 12:50:42;;;;;;;5.57;1.48;;;28.40;41.30;;;;;;4977161;28;20061;-83
2022/05/17 12:53:21;;;;;;;4.68;1.58;;;28.50;41.10;;;;;;4993407;28;20053;-84
2022/05/17 12:56:07;;;;;;;6.25;1.80;;;28.50;41.40;;;;;;4977449;28;20101;-85
2022/05/17 12:58:35;;;;;;;6.65;1.65;;;28.70;41.60;;;;;;4993715;28;20042;-83
2022/05/17 13:01:05;;;;;;;5.22;1.92;;;28.80;41.50;;;;;;4977223;28;20482;-84
2022/05/17 13:03:32;;;;;;;5.60;1.77;;;28.90;40.60;;;;;;4993230;28;20054;-85
2022/05/17 13:06:03;;;;;;;4.22;1.52;;;29.00;40.80;;;;;;4977208;28;20045;-83
2022/05/17 13:08:38;;;;;;;8.63;2.20;;;29.00;41.20;;;;;;4982134;28;20152;-83
2022/05/17 13:11:18;;;;;;;6.95;2.05;;;29.20;40.70;;;;;;5034515;28;20091;-84
2022/05/17 13:13:44;;;;;;;5.18;2.15;;;29.20;40.40;;;;;;5033892;28;20077;-82
2022/05/17 13:16:33;;;;;;;7.75;2.50;;;29.20;40.70;;;;;;5034853;28;20358;-83
2022/05/17 13:19:03;;;;;;;5.60;2.25;;;29.20;40.70;;;;;;4997292;28;20048;-83